createdAt,value
2018-03-06T00:01:59.702Z,8.00
2018-03-06T00:04:32.183Z,7.77
2018-03-06T00:07:04.550Z,9.93
2018-03-06T00:09:36.954Z,9.37
2018-03-06T00:12:09.658Z,8.90
2018-03-06T00:14:41.711Z,8.37
2018-03-06T00:17:14.066Z,8.33
2018-03-06T00:19:46.445Z,8.60
2018-03-06T00:22:18.851Z,8.20
2018-03-06T00:24:51.144Z,8.03
2018-03-06T00:27:23.427Z,8.90
2018-03-06T00:29:55.899Z,8.93
2018-03-06T00:32:28.276Z,9.13
2018-03-06T00:35:00.738Z,9.47
2018-03-06T00:37:33.055Z,9.07
2018-03-06T00:40:05.315Z,9.20
2018-03-06T00:42:37.603Z,9.77
2018-03-06T00:45:10.525Z,9.97
2018-03-06T00:47:43.491Z,9.93
2018-03-06T00:50:16.232Z,9.80
2018-03-06T00:52:48.479Z,9.70
2018-03-06T00:55:21.630Z,10.10
2018-03-06T00:57:54.457Z,9.87
2018-03-06T01:00:26.878Z,10.30
2018-03-06T01:02:59.192Z,10.07
2018-03-06T01:05:31.534Z,9.43
2018-03-06T01:08:03.942Z,9.67
2018-03-06T01:10:36.303Z,9.87
2018-03-06T01:13:08.963Z,9.23
2018-03-06T01:15:41.423Z,9.73
2018-03-06T01:18:14.383Z,10.00
2018-03-06T01:20:48.631Z,10.73
2018-03-06T01:23:21.506Z,10.27
2018-03-06T01:25:53.903Z,10.33
2018-03-06T01:28:26.204Z,10.17
2018-03-06T01:30:59.690Z,9.60
2018-03-06T01:33:32.178Z,10.10
2018-03-06T01:36:04.474Z,10.03
2018-03-06T01:38:37.283Z,10.33
2018-03-06T01:41:10.294Z,10.20
2018-03-06T01:43:42.634Z,10.17
2018-03-06T01:46:14.964Z,10.47
2018-03-06T01:48:48.206Z,11.03
2018-03-06T01:51:20.787Z,10.67
2018-03-06T01:53:53.567Z,11.13
2018-03-06T01:56:25.645Z,10.43
2018-03-06T01:58:58.135Z,10.80
2018-03-06T02:01:30.439Z,11.03
2018-03-06T02:04:02.806Z,10.77
2018-03-06T02:06:35.125Z,9.93
2018-03-06T02:09:07.346Z,10.20
2018-03-06T02:11:39.854Z,10.07
2018-03-06T02:14:12.547Z,10.47
2018-03-06T02:16:44.622Z,10.30
2018-03-06T02:19:17.060Z,10.63
2018-03-06T02:21:49.502Z,10.40
2018-03-06T02:24:22.447Z,10.07
2018-03-06T02:26:55.843Z,11.07
2018-03-06T02:29:28.603Z,10.40
2018-03-06T02:32:00.998Z,11.00
2018-03-06T02:34:33.567Z,10.50
2018-03-06T02:37:05.638Z,10.53
2018-03-06T02:39:38.313Z,11.30
2018-03-06T02:42:10.582Z,10.13
2018-03-06T02:44:43.014Z,10.90
2018-03-06T02:47:15.395Z,11.47
2018-03-06T02:49:47.775Z,11.83
2018-03-06T02:52:20.784Z,11.10
2018-03-06T02:54:53.786Z,11.63
2018-03-06T02:57:26.662Z,11.53
2018-03-06T02:59:59.043Z,12.03
2018-03-06T03:02:31.250Z,11.87
2018-03-06T03:05:03.695Z,11.53
2018-03-06T03:07:36.007Z,11.37
2018-03-06T03:10:08.324Z,11.77
2018-03-06T03:12:40.507Z,11.70
2018-03-06T03:15:12.895Z,11.73
2018-03-06T03:17:45.202Z,12.00
2018-03-06T03:20:18.739Z,10.97
2018-03-06T03:22:50.935Z,12.50
2018-03-06T03:25:24.711Z,11.80
2018-03-06T03:27:56.829Z,12.47
2018-03-06T03:30:30.168Z,11.83
2018-03-06T03:33:03.159Z,12.03
2018-03-06T03:35:35.359Z,12.13
2018-03-06T03:38:07.698Z,11.57
2018-03-06T03:40:40.175Z,12.60
2018-03-06T03:43:12.438Z,11.57
2018-03-06T03:45:45.540Z,12.33
2018-03-06T03:48:18.115Z,12.57
2018-03-06T03:50:50.431Z,12.17
2018-03-06T03:53:22.902Z,11.77
2018-03-06T03:55:55.402Z,13.33
2018-03-06T03:58:27.771Z,12.80
2018-03-06T04:01:00.123Z,12.67
2018-03-06T04:03:32.787Z,13.30
2018-03-06T04:06:05.782Z,12.60
2018-03-06T04:08:38.227Z,12.50
2018-03-06T04:11:10.570Z,13.40
2018-03-06T04:13:43.790Z,13.17
2018-03-06T04:16:16.435Z,13.40
2018-03-06T04:18:48.870Z,12.70
2018-03-06T04:21:21.814Z,12.70
2018-03-06T04:23:54.738Z,13.20
2018-03-06T04:26:27.799Z,12.93
2018-03-06T04:29:00.982Z,13.33
2018-03-06T04:31:33.099Z,12.77
2018-03-06T04:34:05.787Z,13.77
2018-03-06T04:36:38.240Z,13.80
2018-03-06T04:39:11.511Z,14.13
2018-03-06T04:41:44.171Z,14.00
2018-03-06T04:44:16.630Z,12.73
2018-03-06T04:46:49.003Z,13.20
2018-03-06T04:49:22.010Z,14.13
2018-03-06T04:51:54.902Z,14.07
2018-03-06T04:54:27.145Z,13.93
2018-03-06T04:56:59.635Z,14.87
2018-03-06T04:59:32.315Z,14.27
2018-03-06T05:02:04.504Z,14.53
2018-03-06T05:04:36.850Z,15.40
2018-03-06T05:07:09.435Z,14.90
2018-03-06T05:09:42.223Z,15.40
2018-03-06T05:12:15.222Z,15.23
2018-03-06T05:14:47.501Z,13.60
2018-03-06T05:17:19.926Z,15.00
2018-03-06T05:19:52.286Z,14.20
2018-03-06T05:22:24.594Z,14.57
2018-03-06T05:24:57.091Z,15.17
2018-03-06T05:27:29.393Z,14.27
2018-03-06T05:30:01.830Z,14.50
2018-03-06T05:32:34.394Z,15.97
2018-03-06T05:35:07.178Z,15.17
2018-03-06T05:37:40.091Z,15.57
2018-03-06T05:40:12.534Z,14.97
2018-03-06T05:42:44.846Z,16.17
2018-03-06T05:45:17.171Z,16.63
2018-03-06T05:47:49.478Z,15.13
2018-03-06T05:50:21.886Z,16.37
2018-03-06T05:52:54.276Z,15.67
2018-03-06T05:55:26.546Z,16.93
2018-03-06T05:57:59.338Z,15.53
2018-03-06T06:00:31.555Z,16.03
2018-03-06T06:03:04.494Z,16.67
2018-03-06T06:05:37.255Z,17.67
2018-03-06T06:08:10.090Z,16.80
2018-03-06T06:10:43.087Z,17.73
2018-03-06T06:13:15.399Z,17.70
2018-03-06T06:15:47.722Z,16.33
2018-03-06T06:18:20.127Z,17.40
2018-03-06T06:20:52.503Z,17.10
2018-03-06T06:23:24.811Z,17.20
2018-03-06T06:25:57.188Z,16.83
2018-03-06T06:28:29.466Z,17.70
2018-03-06T06:31:01.782Z,17.90
2018-03-06T06:33:34.211Z,18.70
2018-03-06T06:36:06.454Z,17.13
2018-03-06T06:38:38.806Z,17.70
2018-03-06T06:41:11.206Z,17.63
2018-03-06T06:43:43.592Z,16.00
2018-03-06T06:46:15.846Z,16.57
2018-03-06T06:48:48.139Z,16.53
2018-03-06T06:51:20.498Z,16.60
2018-03-06T06:53:53.191Z,17.40
2018-03-06T06:56:26.238Z,16.40
2018-03-06T06:58:58.698Z,16.63
2018-03-06T07:01:31.012Z,16.70
2018-03-06T07:04:03.775Z,18.13
2018-03-06T07:06:35.834Z,16.33
2018-03-06T07:09:08.162Z,16.43
2018-03-06T07:11:40.407Z,16.97
2018-03-06T07:14:13.643Z,16.40
2018-03-06T07:16:46.198Z,17.30
2018-03-06T07:19:18.698Z,16.10
2018-03-06T07:21:51.326Z,16.87
2018-03-06T07:24:23.692Z,16.10
2018-03-06T07:26:55.809Z,16.70
2018-03-06T07:29:28.850Z,16.77
2018-03-06T07:32:02.316Z,16.43
2018-03-06T07:34:35.025Z,18.53
2018-03-06T07:37:07.602Z,17.70
2018-03-06T07:39:40.490Z,16.77
2018-03-06T07:42:12.879Z,17.57
2018-03-06T07:44:45.547Z,17.77
2018-03-06T07:47:18.583Z,17.73
2018-03-06T07:49:50.894Z,16.30
2018-03-06T07:52:23.166Z,19.17
2018-03-06T07:54:55.508Z,18.63
2018-03-06T07:57:27.870Z,17.03
2018-03-06T08:00:00.318Z,17.67
2018-03-06T08:02:33.139Z,17.50
2018-03-06T08:05:06.259Z,17.60
2018-03-06T08:07:38.578Z,16.83
2018-03-06T08:10:10.936Z,17.83
2018-03-06T08:12:43.293Z,16.23
2018-03-06T08:15:15.887Z,16.10
2018-03-06T08:17:48.852Z,16.27
2018-03-06T08:20:21.790Z,15.60
2018-03-06T08:22:54.115Z,15.47
2018-03-06T08:25:27.214Z,15.57
2018-03-06T08:27:59.754Z,14.00
2018-03-06T08:30:32.344Z,14.77
2018-03-06T08:33:04.714Z,15.13
2018-03-06T08:35:36.959Z,14.23
2018-03-06T08:38:10.063Z,14.37
2018-03-06T08:40:42.886Z,13.53
2018-03-06T08:43:15.421Z,13.93
2018-03-06T08:45:47.857Z,14.60
2018-03-06T08:48:20.063Z,13.87
2018-03-06T08:50:52.558Z,12.80
2018-03-06T08:53:25.627Z,12.23
2018-03-06T08:55:57.927Z,12.50
2018-03-06T08:58:30.285Z,11.00
2018-03-06T09:01:02.582Z,10.37
2018-03-06T09:03:36.099Z,10.90
2018-03-06T09:06:08.311Z,10.53
2018-03-06T09:08:40.628Z,10.80
2018-03-06T09:11:13.167Z,10.17
2018-03-06T09:13:45.421Z,11.30
2018-03-06T09:16:17.819Z,10.83
2018-03-06T09:18:50.370Z,11.17
2018-03-06T09:21:23.388Z,10.77
2018-03-06T09:23:55.766Z,10.77
2018-03-06T09:26:28.190Z,11.60
2018-03-06T09:29:00.703Z,11.23
2018-03-06T09:31:33.794Z,11.00
2018-03-06T09:34:06.981Z,11.87
2018-03-06T09:36:40.168Z,11.00
2018-03-06T09:39:12.967Z,10.67
2018-03-06T09:41:46.382Z,10.83
2018-03-06T09:44:19.044Z,10.33
2018-03-06T09:46:51.458Z,11.20
2018-03-06T09:49:23.746Z,9.90
2018-03-06T09:51:56.354Z,9.43
2018-03-06T09:54:28.727Z,9.50
2018-03-06T09:57:01.162Z,9.47
2018-03-06T09:59:33.974Z,9.83
2018-03-06T10:02:06.931Z,9.13
2018-03-06T10:04:39.288Z,10.63
2018-03-06T10:07:11.922Z,9.77
2018-03-06T10:09:44.949Z,10.03
2018-03-06T10:12:17.230Z,9.63
2018-03-06T10:14:49.747Z,10.50
2018-03-06T10:17:21.974Z,10.30
2018-03-06T10:19:55.014Z,10.67
2018-03-06T10:22:27.678Z,10.10
2018-03-06T10:25:00.778Z,10.50
2018-03-06T10:27:33.472Z,9.90
2018-03-06T10:30:05.811Z,8.87
2018-03-06T10:32:38.510Z,8.93
2018-03-06T10:35:10.642Z,9.93
2018-03-06T10:37:42.926Z,9.37
2018-03-06T10:40:15.712Z,10.87
2018-03-06T10:42:47.837Z,10.33
2018-03-06T10:45:20.982Z,10.53
2018-03-06T10:47:53.503Z,9.13
2018-03-06T10:50:25.727Z,10.17
2018-03-06T10:52:58.739Z,11.03
2018-03-06T10:55:31.326Z,9.83
2018-03-06T10:58:03.754Z,10.03
2018-03-06T11:00:42.915Z,10.77
2018-03-06T11:03:22.141Z,10.67
2018-03-06T11:05:55.019Z,11.07
2018-03-06T11:08:27.376Z,10.40
2018-03-06T11:10:59.943Z,11.30
2018-03-06T11:13:32.250Z,10.80
2018-03-06T11:16:04.583Z,10.50
2018-03-06T11:18:36.942Z,11.73
2018-03-06T11:21:09.348Z,11.47
2018-03-06T11:23:41.626Z,11.50
2018-03-06T11:26:14.721Z,10.87
2018-03-06T11:28:47.495Z,10.87
2018-03-06T11:31:20.731Z,11.17
2018-03-06T11:33:53.086Z,11.10
2018-03-06T11:36:25.434Z,11.33
2018-03-06T11:38:58.266Z,11.27
2018-03-06T11:41:31.211Z,11.17
2018-03-06T11:44:03.574Z,11.13
2018-03-06T11:46:35.831Z,11.93
2018-03-06T11:49:08.159Z,11.37
2018-03-06T11:51:40.518Z,10.97
2018-03-06T11:54:13.655Z,10.40
2018-03-06T11:56:46.876Z,11.17
2018-03-06T11:59:19.687Z,10.07
2018-03-06T12:01:52.256Z,10.87
2018-03-06T12:04:24.582Z,10.37
2018-03-06T12:06:57.235Z,10.93
2018-03-06T12:09:29.322Z,10.30
2018-03-06T12:12:01.707Z,10.53
2018-03-06T12:14:34.679Z,11.07
2018-03-06T12:17:07.410Z,11.10
2018-03-06T12:19:39.613Z,10.77
2018-03-06T12:22:12.235Z,10.53
2018-03-06T12:24:45.120Z,11.50
2018-03-06T12:27:17.799Z,10.87
2018-03-06T12:29:50.808Z,10.10
2018-03-06T12:32:23.067Z,10.03
2018-03-06T12:34:55.739Z,11.50
2018-03-06T12:37:27.986Z,10.97
2018-03-06T12:40:00.539Z,9.97
2018-03-06T12:42:32.859Z,10.90
2018-03-06T12:45:05.202Z,10.80
2018-03-06T12:47:38.233Z,10.53
2018-03-06T12:50:10.999Z,10.47
2018-03-06T12:52:43.562Z,11.53
2018-03-06T12:55:16.066Z,11.60
2018-03-06T12:57:48.558Z,11.73
2018-03-06T13:00:21.744Z,11.57
2018-03-06T13:02:54.522Z,11.50
2018-03-06T13:05:27.687Z,11.50
2018-03-06T13:08:01.084Z,11.07
2018-03-06T13:10:34.706Z,11.50
2018-03-06T13:13:07.403Z,10.93
2018-03-06T13:15:39.991Z,11.43
2018-03-06T13:18:12.331Z,10.53
2018-03-06T13:20:44.719Z,11.07
2018-03-06T13:23:16.991Z,11.27
2018-03-06T13:25:49.742Z,12.00
2018-03-06T13:28:21.831Z,11.60
2018-03-06T13:30:54.946Z,13.40
2018-03-06T13:33:27.603Z,11.23
2018-03-06T13:36:00.982Z,11.57
2018-03-06T13:38:33.398Z,9.23
2018-03-06T13:41:05.846Z,10.67
2018-03-06T13:43:38.112Z,10.70
2018-03-06T13:46:10.438Z,9.57
2018-03-06T13:48:42.899Z,9.93
2018-03-06T13:51:15.168Z,9.50
2018-03-06T13:53:47.394Z,8.90
2018-03-06T13:56:19.591Z,9.43
2018-03-06T13:58:52.654Z,9.37
2018-03-06T14:01:25.250Z,9.03
2018-03-06T14:03:57.606Z,8.53
2018-03-06T14:06:29.924Z,8.90
2018-03-06T14:09:02.527Z,7.60
2018-03-06T14:11:34.670Z,8.40
2018-03-06T14:14:07.924Z,8.33
2018-03-06T14:16:40.506Z,7.70
2018-03-06T14:19:12.930Z,10.10
2018-03-06T14:21:45.173Z,9.83
2018-03-06T14:24:18.060Z,10.43
2018-03-06T14:26:50.962Z,10.20
2018-03-06T14:29:23.443Z,10.63
2018-03-06T14:31:56.603Z,10.40
2018-03-06T14:34:29.214Z,9.77
2018-03-06T14:37:01.477Z,9.80
2018-03-06T14:39:34.450Z,10.00
2018-03-06T14:42:07.394Z,9.80
2018-03-06T14:44:39.879Z,10.40
2018-03-06T14:47:12.986Z,10.47
2018-03-06T14:49:45.756Z,9.23
2018-03-06T14:52:18.827Z,8.50
2018-03-06T14:54:51.782Z,9.03
2018-03-06T14:57:23.906Z,8.23
2018-03-06T14:59:56.263Z,7.87
2018-03-06T15:02:28.907Z,8.10
2018-03-06T15:05:00.998Z,8.47
2018-03-06T15:07:33.326Z,6.93
2018-03-06T15:10:05.778Z,7.87
2018-03-06T15:12:38.221Z,7.90
2018-03-06T15:15:10.646Z,7.10
2018-03-06T15:17:43.557Z,7.50
2018-03-06T15:20:16.627Z,7.03
2018-03-06T15:22:48.939Z,6.17
2018-03-06T15:25:21.367Z,7.07
2018-03-06T15:27:53.798Z,7.27
2018-03-06T15:30:26.258Z,6.70
2018-03-06T15:32:58.679Z,6.43
2018-03-06T15:35:31.050Z,6.37
2018-03-06T15:38:03.349Z,7.20
2018-03-06T15:40:35.915Z,6.63
2018-03-06T15:43:08.081Z,6.77
2018-03-06T15:45:40.585Z,6.87
2018-03-06T15:48:13.521Z,7.07
2018-03-06T15:50:46.351Z,7.23
2018-03-06T15:53:18.880Z,6.37
2018-03-06T15:55:51.178Z,7.27
2018-03-06T15:58:23.380Z,6.60
2018-03-06T16:00:56.019Z,6.80
2018-03-06T16:03:28.555Z,6.27
2018-03-06T16:06:02.268Z,6.17
2018-03-06T16:08:34.965Z,5.87
2018-03-06T16:11:07.669Z,5.93
2018-03-06T16:13:41.183Z,6.90
2018-03-06T16:16:14.483Z,6.40
2018-03-06T16:18:47.816Z,7.13
2018-03-06T16:21:21.163Z,6.63
2018-03-06T16:23:54.211Z,6.50
2018-03-06T16:26:26.833Z,6.37
2018-03-06T16:28:59.446Z,6.53
2018-03-06T16:31:31.976Z,6.40
2018-03-06T16:34:05.354Z,5.67
2018-03-06T16:36:38.656Z,5.60
2018-03-06T16:39:11.648Z,6.00
2018-03-06T16:41:43.905Z,5.73
2018-03-06T16:44:16.470Z,5.50
2018-03-06T16:46:48.878Z,5.30
2018-03-06T16:49:21.970Z,5.20
2018-03-06T16:51:54.661Z,5.10
2018-03-06T16:54:27.270Z,5.13
2018-03-06T16:57:00.408Z,5.23
2018-03-06T16:59:33.417Z,5.17
2018-03-06T17:02:06.432Z,5.30
2018-03-06T17:04:38.891Z,5.43
2018-03-06T17:07:12.111Z,5.53
2018-03-06T17:09:44.555Z,5.60
2018-03-06T17:12:16.892Z,5.30
2018-03-06T17:14:49.550Z,5.53
2018-03-06T17:17:22.492Z,5.00
2018-03-06T17:19:54.700Z,5.30
2018-03-06T17:22:27.069Z,4.90
2018-03-06T17:24:59.368Z,6.07
2018-03-06T17:27:31.822Z,5.90
2018-03-06T17:30:04.322Z,5.70
2018-03-06T17:32:37.380Z,5.57
2018-03-06T17:35:09.737Z,5.93
2018-03-06T17:37:42.094Z,5.77
2018-03-06T17:40:14.553Z,5.77
2018-03-06T17:42:47.963Z,6.40
2018-03-06T17:45:20.880Z,6.33
2018-03-06T17:47:53.624Z,5.83
2018-03-06T17:50:26.639Z,5.72
2018-03-06T17:52:59.240Z,6.30
2018-03-06T17:55:31.434Z,5.53
2018-03-06T17:58:03.707Z,5.67
2018-03-06T18:00:36.148Z,6.63
2018-03-06T18:03:08.493Z,5.70
2018-03-06T18:05:41.514Z,6.67
2018-03-06T18:08:14.916Z,6.37
2018-03-06T18:10:47.893Z,5.87
2018-03-06T18:13:20.997Z,5.77
2018-03-06T18:15:53.656Z,5.70
2018-03-06T18:18:25.892Z,5.57
2018-03-06T18:20:58.510Z,6.67
2018-03-06T18:23:30.909Z,6.53
2018-03-06T18:26:03.594Z,6.77
2018-03-06T18:28:36.945Z,7.00
2018-03-06T18:31:09.929Z,6.63
2018-03-06T18:33:42.573Z,7.43
2018-03-06T18:36:15.634Z,6.70
2018-03-06T18:38:47.846Z,7.07
2018-03-06T18:41:20.682Z,7.03
2018-03-06T18:43:53.237Z,8.20
2018-03-06T18:46:26.256Z,7.90
2018-03-06T18:48:58.477Z,7.50
2018-03-06T18:51:31.172Z,8.20
2018-03-06T18:54:04.180Z,8.40
2018-03-06T18:56:37.145Z,8.57
2018-03-06T18:59:09.916Z,8.60
2018-03-06T19:02:12.827Z,8.70
2018-03-06T19:04:57.665Z,9.80
2018-03-06T19:07:29.832Z,8.17
2018-03-06T19:10:02.184Z,8.33
2018-03-06T19:12:35.193Z,9.70
2018-03-06T19:15:07.757Z,9.63
2018-03-06T19:17:40.021Z,8.17
2018-03-06T19:20:12.858Z,10.03
2018-03-06T19:22:45.909Z,10.37
2018-03-06T19:25:18.362Z,9.17
2018-03-06T19:27:50.885Z,9.87
2018-03-06T19:30:23.222Z,10.13
2018-03-06T19:32:55.593Z,9.73
2018-03-06T19:35:28.628Z,10.50
2018-03-06T19:38:01.156Z,9.80
2018-03-06T19:40:33.431Z,10.20
2018-03-06T19:43:05.650Z,9.60
2018-03-06T19:45:37.994Z,8.93
2018-03-06T19:48:10.820Z,9.33
2018-03-06T19:50:44.649Z,10.53
2018-03-06T19:53:17.226Z,9.63
2018-03-06T19:55:50.236Z,10.70
2018-03-06T19:58:23.592Z,11.43
2018-03-06T20:00:56.106Z,10.60
2018-03-06T20:03:28.578Z,11.57
2018-03-06T20:06:00.762Z,11.50
2018-03-06T20:08:33.132Z,11.83
2018-03-06T20:11:05.497Z,12.63
2018-03-06T20:13:37.920Z,12.10
2018-03-06T20:16:10.297Z,12.30
2018-03-06T20:18:42.623Z,12.63
2018-03-06T20:21:15.107Z,13.63
2018-03-06T20:23:48.131Z,13.57
2018-03-06T20:26:20.446Z,13.07
2018-03-06T20:28:52.918Z,15.03
2018-03-06T20:31:41.814Z,12.67
2018-03-06T20:34:14.563Z,12.97
2018-03-06T20:36:46.624Z,13.40
2018-03-06T20:39:24.986Z,13.70
2018-03-06T20:41:57.438Z,14.70
2018-03-06T20:44:30.355Z,16.60
2018-03-06T20:47:08.927Z,20.90
2018-03-06T20:49:41.326Z,16.23
2018-03-06T20:52:13.658Z,19.90
2018-03-06T20:54:52.886Z,16.63
2018-03-06T20:57:25.303Z,20.77
2018-03-06T20:59:58.255Z,18.80
2018-03-06T21:02:30.943Z,17.57
2018-03-06T21:05:03.229Z,18.97
2018-03-06T21:07:35.771Z,18.70
2018-03-06T21:10:08.103Z,18.57
2018-03-06T21:12:41.087Z,18.37
2018-03-06T21:15:13.642Z,19.70
2018-03-06T21:17:46.082Z,20.80
2018-03-06T21:20:19.251Z,18.93
2018-03-06T21:22:52.867Z,22.97
2018-03-06T21:25:26.018Z,21.77
2018-03-06T21:27:59.618Z,24.40
2018-03-06T21:30:33.751Z,23.57
2018-03-06T21:33:06.177Z,23.57
2018-03-06T21:35:38.609Z,26.23
2018-03-06T21:38:11.582Z,26.70
2018-03-06T21:40:44.452Z,35.37
2018-03-06T21:43:16.914Z,41.07
2018-03-06T21:45:49.275Z,50.37
2018-03-06T21:48:21.879Z,43.17
2018-03-06T21:50:54.083Z,37.67
2018-03-06T21:53:26.334Z,31.17
2018-03-06T21:55:58.695Z,27.37
2018-03-06T21:58:30.910Z,27.07
2018-03-06T22:01:03.367Z,27.23
2018-03-06T22:03:36.331Z,25.20
2018-03-06T22:06:08.934Z,25.23
2018-03-06T22:08:41.338Z,25.20
2018-03-06T22:11:13.778Z,25.33
2018-03-06T22:13:46.358Z,25.00
2018-03-06T22:16:18.475Z,25.33
2018-03-06T22:18:50.899Z,22.13
2018-03-06T22:21:23.322Z,21.80
2018-03-06T22:23:55.731Z,21.50
2018-03-06T22:26:28.134Z,20.60
2018-03-06T22:29:00.462Z,23.97
2018-03-06T22:31:33.450Z,23.70
2018-03-06T22:34:06.362Z,24.43
2018-03-06T22:36:38.774Z,24.33
2018-03-06T22:39:11.195Z,25.67
2018-03-06T22:41:43.733Z,24.33
2018-03-06T22:44:16.138Z,22.93
2018-03-06T22:46:48.590Z,24.37
2018-03-06T22:49:21.300Z,22.07
2018-03-06T22:51:53.374Z,22.13
2018-03-06T22:54:26.430Z,22.60
2018-03-06T22:56:59.201Z,23.60
2018-03-06T22:59:31.555Z,27.87
2018-03-06T23:02:04.086Z,24.93
2018-03-06T23:04:36.536Z,28.00
2018-03-06T23:07:08.902Z,28.13
2018-03-06T23:09:41.343Z,25.43
2018-03-06T23:12:13.687Z,25.27
2018-03-06T23:14:46.012Z,25.00
2018-03-06T23:17:19.014Z,25.67
2018-03-06T23:19:51.647Z,31.58
2018-03-06T23:22:24.578Z,28.83
2018-03-06T23:24:57.978Z,26.83
2018-03-06T23:27:30.552Z,25.87
2018-03-06T23:30:02.962Z,26.83
2018-03-06T23:32:35.266Z,24.87
2018-03-06T23:35:07.763Z,30.07
2018-03-06T23:37:40.242Z,30.67
2018-03-06T23:40:13.016Z,27.63
2018-03-06T23:42:45.286Z,25.53
2018-03-06T23:45:17.987Z,23.47
2018-03-06T23:47:50.096Z,25.57
2018-03-06T23:50:22.667Z,25.57
2018-03-06T23:52:55.506Z,24.80
2018-03-06T23:55:28.431Z,24.23
2018-03-06T23:58:00.708Z,24.20
